Time;durP1;ratioP1;P1;durP2;ratioP2;P2;SDS_P1;SDS_P2;PMS_P1;PMS_P2;Temp;Humidity;BMP_temperature;BMP_pressure;BME280_temperature;BME280_humidity;BME280_pressure;Samples;Min_cycle;Max_cycle;Signal;HPM_P1;HPM_P2
2021/07/03 00:01:54;;;;;;;5.23;4.10;;;14.40;99.90;;;;;;5037682;28;20183;-69
2021/07/03 00:04:19;;;;;;;5.10;4.67;;;14.40;99.90;;;;;;5042223;28;20423;-70
2021/07/03 00:06:45;;;;;;;11.27;5.50;;;14.40;99.90;;;;;;5053134;28;20449;-68
2021/07/03 00:09:11;;;;;;;5.70;5.10;;;14.40;99.90;;;;;;5052715;28;20192;-68
2021/07/03 00:11:37;;;;;;;4.50;4.10;;;14.30;99.90;;;;;;5053200;28;20171;-69
2021/07/03 00:14:03;;;;;;;5.57;5.00;;;14.30;99.90;;;;;;5053427;28;20407;-68
2021/07/03 00:16:29;;;;;;;7.20;4.80;;;14.30;99.90;;;;;;5051953;28;20181;-67
2021/07/03 00:18:55;;;;;;;6.93;4.73;;;14.20;99.90;;;;;;5053758;28;20430;-69
2021/07/03 00:21:22;;;;;;;6.67;4.90;;;14.20;99.90;;;;;;5053477;28;20460;-69
2021/07/03 00:23:47;;;;;;;6.73;4.90;;;14.30;99.90;;;;;;5053238;28;20174;-69
2021/07/03 00:26:13;;;;;;;7.90;5.63;;;14.20;99.90;;;;;;5053125;28;20456;-68
2021/07/03 00:28:39;;;;;;;7.50;6.13;;;14.20;99.90;;;;;;5052886;28;20210;-69
2021/07/03 00:31:04;;;;;;;8.20;5.20;;;14.20;99.90;;;;;;5038348;28;20200;-69
2021/07/03 00:33:30;;;;;;;7.80;6.70;;;14.10;99.90;;;;;;5033856;28;20183;-68
2021/07/03 00:35:56;;;;;;;6.30;5.70;;;14.10;99.90;;;;;;5036074;28;20199;-69
2021/07/03 00:38:21;;;;;;;8.20;5.90;;;14.10;99.90;;;;;;5036691;28;20216;-70
2021/07/03 00:40:47;;;;;;;6.87;5.37;;;14.10;99.90;;;;;;5037214;28;20280;-69
2021/07/03 00:43:13;;;;;;;10.43;4.93;;;14.10;99.90;;;;;;5035893;28;20183;-68
2021/07/03 00:45:39;;;;;;;11.70;5.30;;;14.10;99.90;;;;;;5036861;28;20209;-69
2021/07/03 00:48:07;;;;;;;8.10;5.10;;;14.10;99.90;;;;;;5036744;28;20251;-68
2021/07/03 00:50:33;;;;;;;8.20;6.03;;;14.00;99.90;;;;;;5036377;28;20450;-68
2021/07/03 00:52:59;;;;;;;6.73;5.77;;;14.10;99.90;;;;;;5038740;28;20440;-69
2021/07/03 00:55:26;;;;;;;10.00;6.97;;;14.00;99.90;;;;;;5054988;28;20419;-70
2021/07/03 00:57:53;;;;;;;6.43;4.63;;;14.00;99.90;;;;;;5054719;28;20431;-69
2021/07/03 01:00:20;;;;;;;6.15;4.78;;;14.00;99.90;;;;;;5056484;28;20460;-68
2021/07/03 01:02:46;;;;;;;7.47;6.32;;;14.00;99.90;;;;;;5042146;28;20186;-69
2021/07/03 01:05:13;;;;;;;9.20;5.80;;;14.00;99.90;;;;;;5036219;28;20691;-69
2021/07/03 01:07:39;;;;;;;6.17;4.90;;;14.00;99.90;;;;;;5035717;28;20409;-69
2021/07/03 01:10:15;;;;;;;8.43;5.70;;;14.00;99.90;;;;;;5036302;28;20429;-68
2021/07/03 01:12:41;;;;;;;6.73;5.63;;;14.00;99.90;;;;;;5035833;28;20404;-68
2021/07/03 01:15:06;;;;;;;6.50;5.90;;;13.90;99.90;;;;;;5036293;28;20496;-69
2021/07/03 01:17:32;;;;;;;5.90;5.40;;;13.90;99.90;;;;;;5048920;28;20173;-69
2021/07/03 01:19:58;;;;;;;7.33;6.03;;;13.90;99.90;;;;;;5055786;28;20855;-68
2021/07/03 01:22:23;;;;;;;6.90;5.27;;;13.90;99.90;;;;;;5055873;28;20645;-68
2021/07/03 01:24:49;;;;;;;8.60;6.33;;;14.00;99.90;;;;;;5050765;28;20540;-69
2021/07/03 01:27:15;;;;;;;8.07;5.57;;;14.00;99.90;;;;;;5035700;28;20255;-68
2021/07/03 01:29:41;;;;;;;7.20;5.30;;;14.00;99.90;;;;;;5035745;28;20710;-69
2021/07/03 01:32:07;;;;;;;8.03;6.00;;;13.90;99.90;;;;;;5036177;28;20181;-68
2021/07/03 01:34:33;;;;;;;5.80;5.10;;;13.90;99.90;;;;;;5047689;28;20976;-69
2021/07/03 01:36:59;;;;;;;7.20;5.43;;;13.80;99.90;;;;;;5055707;28;20412;-68
2021/07/03 01:39:26;;;;;;;6.57;5.53;;;13.70;99.90;;;;;;5055156;28;20285;-69
2021/07/03 01:41:52;;;;;;;8.45;6.15;;;13.70;99.90;;;;;;5054776;28;20477;-69
2021/07/03 01:44:25;;;;;;;7.40;5.60;;;13.70;99.90;;;;;;5073302;28;20265;-68
2021/07/03 01:46:53;;;;;;;6.70;5.37;;;13.70;99.90;;;;;;5073050;28;20550;-68
2021/07/03 01:49:19;;;;;;;5.88;5.25;;;13.70;99.90;;;;;;5072347;28;20523;-67
2021/07/03 01:51:45;;;;;;;9.30;6.20;;;13.70;99.90;;;;;;5072552;28;20252;-70
2021/07/03 01:54:11;;;;;;;8.00;5.47;;;13.70;99.90;;;;;;5064304;28;20188;-68
2021/07/03 01:56:40;;;;;;;11.10;5.60;;;13.60;99.90;;;;;;5052665;28;20183;-68
2021/07/03 01:59:05;;;;;;;8.10;6.35;;;13.70;99.90;;;;;;5052159;28;20265;-70
2021/07/03 02:01:31;;;;;;;7.90;6.40;;;13.60;99.90;;;;;;5052731;28;20662;-69
2021/07/03 02:03:57;;;;;;;8.20;5.53;;;13.60;99.90;;;;;;5036547;28;20581;-69
2021/07/03 02:06:22;;;;;;;8.07;6.40;;;13.60;99.90;;;;;;5053108;28;20173;-69
2021/07/03 02:08:48;;;;;;;7.00;5.23;;;13.50;99.90;;;;;;5053263;28;20225;-68
2021/07/03 02:11:14;;;;;;;6.50;5.63;;;13.50;99.90;;;;;;5052337;28;20644;-68
2021/07/03 02:13:39;;;;;;;6.70;5.30;;;13.50;99.90;;;;;;5052660;28;20641;-69
2021/07/03 02:16:05;;;;;;;5.40;4.90;;;13.40;99.90;;;;;;5037224;28;20188;-69
2021/07/03 02:18:30;;;;;;;10.10;7.20;;;13.40;99.90;;;;;;5033892;28;20529;-69
2021/07/03 02:20:56;;;;;;;8.53;6.53;;;13.40;99.90;;;;;;5034421;28;20195;-70
2021/07/03 02:23:22;;;;;;;10.60;6.27;;;13.40;99.90;;;;;;5053493;28;20635;-69
2021/07/03 02:25:47;;;;;;;10.87;6.33;;;13.40;99.90;;;;;;5054105;28;20166;-69
2021/07/03 02:28:14;;;;;;;7.50;6.60;;;13.40;99.90;;;;;;5053599;28;20166;-68
2021/07/03 02:30:39;;;;;;;8.27;5.85;;;13.30;99.90;;;;;;5054001;28;20206;-69
2021/07/03 02:33:05;;;;;;;11.10;6.57;;;13.30;99.90;;;;;;5053941;28;20183;-69
2021/07/03 02:35:31;;;;;;;8.87;6.73;;;13.30;99.90;;;;;;5053493;28;20204;-69
2021/07/03 02:37:57;;;;;;;8.70;6.90;;;13.30;99.90;;;;;;5053637;28;20176;-69
2021/07/03 02:40:23;;;;;;;10.32;7.10;;;13.30;99.90;;;;;;5053611;28;20197;-68
2021/07/03 02:42:49;;;;;;;14.57;6.72;;;13.20;99.90;;;;;;5052568;28;20178;-68
2021/07/03 02:45:16;;;;;;;7.03;6.10;;;13.20;99.90;;;;;;5053855;28;20166;-68
2021/07/03 02:47:42;;;;;;;7.90;5.88;;;13.30;99.90;;;;;;5053397;28;20170;-69
2021/07/03 02:50:14;;;;;;;11.80;6.20;;;13.20;99.90;;;;;;5040470;28;20281;-69
2021/07/03 02:52:40;;;;;;;11.15;6.93;;;13.20;99.90;;;;;;5034364;28;20170;-69
2021/07/03 02:55:06;;;;;;;7.00;6.30;;;13.20;99.90;;;;;;5033653;28;20662;-69
2021/07/03 02:57:32;;;;;;;13.48;5.43;;;13.20;99.90;;;;;;5032373;28;20244;-69
2021/07/03 02:59:58;;;;;;;11.03;7.53;;;13.10;99.90;;;;;;5033644;28;20205;-68
2021/07/03 03:02:23;;;;;;;7.37;5.60;;;13.20;99.90;;;;;;5033889;28;20900;-68
2021/07/03 03:04:50;;;;;;;8.07;6.37;;;13.10;99.90;;;;;;5033527;28;20184;-69
2021/07/03 03:07:15;;;;;;;7.18;5.97;;;13.00;99.90;;;;;;5033124;28;20174;-70
2021/07/03 03:09:41;;;;;;;7.37;5.73;;;13.00;99.90;;;;;;5033512;28;20203;-70
2021/07/03 03:12:07;;;;;;;7.70;5.87;;;13.00;99.90;;;;;;5033575;28;20171;-70
2021/07/03 03:14:33;;;;;;;7.43;6.73;;;13.00;99.90;;;;;;5033544;28;20249;-70
2021/07/03 03:16:58;;;;;;;9.70;5.17;;;13.00;99.90;;;;;;5033302;28;20415;-68
2021/07/03 03:19:24;;;;;;;9.30;6.60;;;13.00;99.90;;;;;;5042248;28;20206;-69
2021/07/03 03:21:50;;;;;;;9.47;7.33;;;13.00;99.90;;;;;;5053409;28;20551;-69
2021/07/03 03:24:16;;;;;;;6.47;5.70;;;12.90;99.90;;;;;;5053353;28;20523;-69
2021/07/03 03:26:42;;;;;;;9.68;5.97;;;12.90;99.90;;;;;;5052826;28;20166;-69
2021/07/03 03:29:08;;;;;;;6.27;5.13;;;12.80;99.90;;;;;;5052827;28;20587;-69
2021/07/03 03:31:33;;;;;;;6.53;5.73;;;12.80;99.90;;;;;;5053466;28;20404;-69
2021/07/03 03:33:59;;;;;;;6.83;5.60;;;12.80;99.90;;;;;;5053059;28;20216;-69
2021/07/03 03:36:25;;;;;;;7.10;5.93;;;12.80;99.90;;;;;;5053179;28;20174;-68
2021/07/03 03:38:50;;;;;;;12.93;6.10;;;12.70;99.90;;;;;;5052767;28;20185;-69
2021/07/03 03:41:16;;;;;;;10.70;6.37;;;12.80;99.90;;;;;;5053407;28;20205;-68
2021/07/03 03:43:42;;;;;;;9.00;6.77;;;12.80;99.90;;;;;;5033696;28;20176;-68
2021/07/03 03:46:08;;;;;;;5.60;4.97;;;12.80;99.90;;;;;;5033171;28;20884;-68
2021/07/03 03:48:34;;;;;;;6.75;6.05;;;12.80;99.90;;;;;;5032720;28;20489;-69
2021/07/03 03:50:59;;;;;;;7.97;6.57;;;12.90;99.90;;;;;;5034053;28;20673;-69
2021/07/03 03:53:25;;;;;;;13.53;7.20;;;12.90;99.90;;;;;;5033709;28;20306;-69
2021/07/03 03:55:51;;;;;;;5.63;5.13;;;13.00;99.90;;;;;;5033371;28;20174;-70
2021/07/03 03:58:16;;;;;;;7.00;5.80;;;12.90;99.90;;;;;;5033435;28;20197;-68
2021/07/03 04:00:42;;;;;;;6.47;5.90;;;13.00;99.90;;;;;;5034143;28;20197;-68
2021/07/03 04:03:08;;;;;;;9.70;6.57;;;13.00;99.90;;;;;;5033563;28;20167;-69
2021/07/03 04:05:33;;;;;;;20.13;7.50;;;13.00;99.90;;;;;;5052718;28;20457;-68
2021/07/03 04:07:59;;;;;;;6.63;5.87;;;13.00;99.90;;;;;;5052421;28;20174;-68
2021/07/03 04:10:25;;;;;;;7.23;6.37;;;13.00;99.90;;;;;;5056056;28;20189;-69
2021/07/03 04:12:50;;;;;;;10.13;6.33;;;13.00;99.90;;;;;;5046634;28;20206;-69
2021/07/03 04:15:16;;;;;;;8.30;5.90;;;13.00;99.90;;;;;;5036992;28;20406;-68
2021/07/03 04:17:42;;;;;;;9.10;6.60;;;13.00;99.90;;;;;;5036683;28;20226;-69
2021/07/03 04:20:09;;;;;;;6.90;6.00;;;13.00;99.90;;;;;;5036383;28;20202;-69
2021/07/03 04:22:35;;;;;;;8.10;5.82;;;13.00;99.90;;;;;;5036507;28;20402;-68
2021/07/03 04:25:05;;;;;;;10.47;6.30;;;13.10;99.90;;;;;;5036312;28;20171;-68
2021/07/03 04:27:31;;;;;;;9.17;6.03;;;13.20;99.90;;;;;;5044520;28;20427;-69
2021/07/03 04:29:56;;;;;;;9.13;5.80;;;13.40;99.90;;;;;;5040202;28;20448;-68
2021/07/03 04:32:22;;;;;;;8.37;5.77;;;13.80;99.90;;;;;;5036437;28;20278;-68
2021/07/03 04:34:48;;;;;;;8.13;5.23;;;14.10;99.90;;;;;;5035048;28;20188;-68
2021/07/03 04:37:13;;;;;;;7.20;5.00;;;14.40;99.90;;;;;;5035917;28;20524;-69
2021/07/03 04:39:39;;;;;;;5.20;4.70;;;14.70;99.90;;;;;;5034885;28;20236;-68
2021/07/03 04:42:05;;;;;;;6.67;6.00;;;14.90;99.90;;;;;;5036127;28;20179;-68
2021/07/03 04:44:31;;;;;;;7.27;4.80;;;15.00;99.90;;;;;;5036345;28;20461;-69
2021/07/03 04:46:56;;;;;;;6.80;4.90;;;14.90;99.90;;;;;;5036189;28;20168;-70
2021/07/03 04:49:22;;;;;;;5.33;4.83;;;15.10;99.90;;;;;;5035592;28;20232;-68
2021/07/03 04:51:48;;;;;;;6.10;4.43;;;15.20;99.90;;;;;;5035925;28;20177;-70
2021/07/03 04:54:13;;;;;;;6.03;5.33;;;15.30;99.90;;;;;;5036096;28;20200;-70
2021/07/03 04:56:39;;;;;;;5.30;4.80;;;15.40;99.90;;;;;;5041051;28;20177;-68
2021/07/03 04:59:05;;;;;;;5.00;4.53;;;15.40;99.90;;;;;;5055938;28;20193;-69
2021/07/03 05:01:31;;;;;;;5.80;4.20;;;15.40;99.90;;;;;;5055564;28;20675;-69
2021/07/03 05:03:56;;;;;;;5.47;4.97;;;15.40;99.90;;;;;;5056027;28;20623;-69
2021/07/03 05:06:22;;;;;;;5.47;4.90;;;15.50;99.90;;;;;;5055480;28;20194;-69
2021/07/03 05:08:48;;;;;;;5.83;4.33;;;15.60;99.90;;;;;;5055308;28;20214;-69
2021/07/03 05:11:13;;;;;;;5.13;4.33;;;15.60;99.90;;;;;;5055308;28;20169;-69
2021/07/03 05:13:39;;;;;;;5.77;4.90;;;15.60;99.90;;;;;;5055540;28;20169;-70
2021/07/03 05:16:05;;;;;;;6.17;5.00;;;15.60;99.90;;;;;;5055523;28;20175;-70
2021/07/03 05:18:30;;;;;;;20.00;4.80;;;15.70;99.90;;;;;;5054946;28;20665;-70
2021/07/03 05:20:56;;;;;;;7.17;5.43;;;15.80;99.90;;;;;;5043210;28;20231;-70
2021/07/03 05:23:22;;;;;;;6.97;5.00;;;15.90;99.90;;;;;;5070795;28;20590;-69
2021/07/03 05:25:52;;;;;;;4.60;4.20;;;16.00;99.90;;;;;;5069599;28;20445;-70
2021/07/03 05:28:17;;;;;;;6.13;5.00;;;16.20;99.90;;;;;;5053529;28;20431;-69
2021/07/03 05:30:43;;;;;;;4.90;4.47;;;16.40;99.90;;;;;;5054893;28;20420;-70
2021/07/03 05:33:09;;;;;;;11.20;5.13;;;16.50;99.90;;;;;;5055078;28;20177;-70
2021/07/03 05:35:35;;;;;;;5.13;4.10;;;16.60;99.90;;;;;;5054953;28;20219;-69
2021/07/03 05:38:01;;;;;;;5.10;4.60;;;16.80;99.90;;;;;;5054106;28;20192;-69
2021/07/03 05:40:27;;;;;;;5.13;4.60;;;17.00;99.90;;;;;;5033606;28;20453;-69
2021/07/03 05:42:53;;;;;;;4.90;4.40;;;17.10;99.90;;;;;;5038037;28;20194;-69
2021/07/03 05:45:18;;;;;;;4.53;4.00;;;17.30;99.90;;;;;;5042504;28;20431;-69
2021/07/03 05:47:52;;;;;;;4.97;4.13;;;17.50;99.90;;;;;;5065473;28;20179;-69
2021/07/03 05:50:26;;;;;;;5.37;3.97;;;17.90;99.90;;;;;;5065436;28;20279;-69
2021/07/03 05:52:52;;;;;;;5.07;4.13;;;18.20;99.90;;;;;;5044903;28;20434;-69
2021/07/03 05:55:19;;;;;;;5.97;4.20;;;18.50;99.90;;;;;;5033500;28;20799;-69
2021/07/03 05:57:44;;;;;;;6.27;4.43;;;18.90;99.90;;;;;;5035197;28;20844;-68
2021/07/03 06:00:12;;;;;;;6.47;4.47;;;19.10;99.90;;;;;;5036092;28;20480;-69
2021/07/03 06:02:38;;;;;;;7.73;4.13;;;19.50;99.90;;;;;;5040194;28;20170;-70
2021/07/03 06:05:06;;;;;;;5.47;4.50;;;19.60;99.90;;;;;;5052519;28;20462;-64
2021/07/03 06:07:32;;;;;;;4.70;4.13;;;19.60;99.90;;;;;;5035449;28;20429;-66
2021/07/03 06:09:58;;;;;;;5.03;4.50;;;19.40;99.90;;;;;;5033356;28;20557;-64
2021/07/03 06:12:23;;;;;;;4.87;4.33;;;19.30;99.90;;;;;;5040214;28;20415;-64
2021/07/03 06:14:49;;;;;;;4.80;4.30;;;19.30;99.90;;;;;;5049460;28;20707;-62
2021/07/03 06:17:14;;;;;;;5.93;4.27;;;19.30;99.90;;;;;;5040901;28;20637;-66
2021/07/03 06:19:41;;;;;;;5.20;4.70;;;19.30;99.90;;;;;;5043694;28;20599;-64
2021/07/03 06:22:09;;;;;;;5.03;3.87;;;19.20;99.90;;;;;;5038957;28;20177;-64
2021/07/03 06:24:35;;;;;;;4.47;4.07;;;19.30;99.90;;;;;;5036291;28;20408;-64
2021/07/03 06:27:01;;;;;;;4.40;3.77;;;19.20;99.90;;;;;;5033838;28;20424;-67
2021/07/03 06:29:26;;;;;;;4.73;4.03;;;19.30;99.90;;;;;;5050499;28;20479;-63
2021/07/03 06:31:52;;;;;;;5.43;4.60;;;19.50;99.90;;;;;;5038838;28;20220;-63
2021/07/03 06:34:18;;;;;;;5.40;3.57;;;19.60;99.90;;;;;;5051843;28;20174;-64
2021/07/03 06:36:43;;;;;;;5.27;3.97;;;19.80;99.90;;;;;;5051061;28;20170;-64
2021/07/03 06:39:09;;;;;;;4.13;3.40;;;20.00;99.90;;;;;;5052889;28;20559;-65
2021/07/03 06:41:35;;;;;;;5.10;3.47;;;20.20;99.90;;;;;;5047050;28;20213;-64
2021/07/03 06:44:00;;;;;;;5.20;4.33;;;20.40;99.90;;;;;;5050228;28;20617;-64
2021/07/03 06:46:28;;;;;;;5.57;4.30;;;20.40;99.90;;;;;;5053364;28;20192;-64
2021/07/03 06:48:54;;;;;;;4.30;3.90;;;20.30;99.90;;;;;;5053336;28;20200;-64
2021/07/03 06:51:20;;;;;;;5.20;4.50;;;20.30;99.90;;;;;;5038301;28;20430;-64
2021/07/03 06:53:45;;;;;;;5.60;4.50;;;20.40;99.90;;;;;;5043441;28;20170;-64
2021/07/03 06:56:11;;;;;;;4.80;4.30;;;20.50;99.90;;;;;;5037642;28;20178;-65
2021/07/03 06:58:37;;;;;;;6.73;4.87;;;20.70;99.90;;;;;;5045036;28;20273;-73
2021/07/03 07:01:02;;;;;;;4.13;3.83;;;21.00;99.90;;;;;;5050905;28;20226;-67
2021/07/03 07:03:30;;;;;;;5.27;3.93;;;21.20;99.90;;;;;;5040143;28;20190;-67
2021/07/03 07:05:56;;;;;;;4.23;3.83;;;21.50;99.90;;;;;;5036524;28;20393;-66
2021/07/03 07:08:22;;;;;;;4.50;4.00;;;21.70;99.90;;;;;;5051003;28;20256;-67
2021/07/03 07:10:48;;;;;;;4.57;4.07;;;21.80;99.90;;;;;;5052817;28;20457;-67
2021/07/03 07:13:14;;;;;;;3.40;3.10;;;22.00;99.90;;;;;;5052647;28;20282;-68
2021/07/03 07:15:40;;;;;;;4.80;4.30;;;22.20;99.90;;;;;;5050662;28;20523;-68
2021/07/03 07:18:05;;;;;;;4.97;4.50;;;22.40;99.90;;;;;;5050465;28;20191;-68
2021/07/03 07:20:31;;;;;;;5.57;4.67;;;22.70;99.90;;;;;;5050938;28;20563;-67
2021/07/03 07:22:57;;;;;;;5.33;4.83;;;23.00;99.90;;;;;;5051608;28;20176;-67
2021/07/03 07:25:22;;;;;;;4.37;3.97;;;23.30;99.40;;;;;;5051388;28;20162;-68
2021/07/03 07:27:48;;;;;;;4.33;3.93;;;23.60;99.40;;;;;;5051499;28;20182;-68
2021/07/03 07:30:14;;;;;;;6.67;3.77;;;24.00;98.80;;;;;;5051415;28;20208;-68
2021/07/03 07:32:40;;;;;;;6.37;4.73;;;24.40;97.40;;;;;;5052360;28;20189;-68
2021/07/03 07:35:06;;;;;;;5.03;4.07;;;24.90;97.20;;;;;;5049818;28;20425;-68
2021/07/03 07:37:32;;;;;;;4.97;4.47;;;25.30;95.90;;;;;;5032485;28;20557;-67
2021/07/03 07:39:58;;;;;;;4.33;3.83;;;25.80;95.50;;;;;;5032423;28;20457;-68
2021/07/03 07:42:23;;;;;;;6.60;4.67;;;26.30;94.50;;;;;;5032463;28;20166;-68
2021/07/03 07:44:49;;;;;;;5.33;4.83;;;27.00;93.00;;;;;;5047028;28;20196;-68
2021/07/03 07:47:15;;;;;;;5.30;4.57;;;27.80;91.10;;;;;;5056091;28;20200;-67
2021/07/03 07:49:40;;;;;;;4.40;4.00;;;28.70;90.00;;;;;;5056422;28;20196;-68
2021/07/03 07:52:06;;;;;;;4.77;4.40;;;29.40;86.00;;;;;;5054554;28;20264;-67
2021/07/03 07:54:31;;;;;;;4.27;3.93;;;29.90;83.50;;;;;;5036694;28;20181;-68
2021/07/03 07:56:59;;;;;;;5.77;4.70;;;30.30;82.90;;;;;;5036351;28;20217;-68
2021/07/03 07:59:28;;;;;;;4.90;4.40;;;30.70;80.10;;;;;;5036186;28;20232;-68
2021/07/03 08:01:54;;;;;;;5.13;4.73;;;30.50;79.70;;;;;;5036468;28;20401;-68
2021/07/03 08:04:20;;;;;;;6.60;4.20;;;30.90;79.20;;;;;;5036602;28;20673;-68
2021/07/03 08:06:45;;;;;;;13.33;7.40;;;31.50;75.70;;;;;;5052295;28;20440;-68
2021/07/03 08:09:11;;;;;;;7.00;4.80;;;32.50;73.40;;;;;;5055885;28;20193;-69
2021/07/03 08:11:37;;;;;;;5.13;4.63;;;33.20;69.50;;;;;;5056152;28;20199;-69
2021/07/03 08:14:03;;;;;;;4.60;4.20;;;33.50;67.20;;;;;;5055796;28;20184;-69
2021/07/03 08:16:29;;;;;;;4.37;4.07;;;33.80;65.00;;;;;;5056199;28;20232;-69
2021/07/03 08:18:55;;;;;;;4.53;4.23;;;34.00;64.90;;;;;;5055815;28;20459;-69
2021/07/03 08:21:21;;;;;;;5.00;4.60;;;34.00;62.60;;;;;;5056180;28;20197;-69
2021/07/03 08:23:47;;;;;;;4.83;4.50;;;34.10;62.10;;;;;;5054642;28;20169;-68
2021/07/03 08:26:12;;;;;;;5.10;4.70;;;34.00;60.60;;;;;;5056044;28;20396;-68
2021/07/03 08:28:38;;;;;;;4.67;4.27;;;33.80;61.00;;;;;;5055244;28;20204;-69
2021/07/03 08:31:04;;;;;;;4.47;4.07;;;34.30;60.00;;;;;;5055853;28;20171;-68
2021/07/03 08:33:30;;;;;;;4.87;4.33;;;34.80;57.10;;;;;;5055557;28;20212;-67
2021/07/03 08:35:56;;;;;;;4.70;4.37;;;35.60;56.30;;;;;;5055886;28;20636;-67
2021/07/03 08:38:22;;;;;;;11.67;6.37;;;36.40;55.50;;;;;;5055640;28;20177;-69
2021/07/03 08:40:48;;;;;;;5.40;4.50;;;36.90;55.10;;;;;;5055749;28;20209;-69
2021/07/03 08:43:14;;;;;;;5.80;5.40;;;37.00;54.10;;;;;;5055507;28;20426;-68
2021/07/03 08:45:40;;;;;;;4.30;4.00;;;37.20;53.10;;;;;;5055895;28;20981;-69
2021/07/03 08:48:06;;;;;;;4.40;4.10;;;37.30;52.00;;;;;;5055475;28;20169;-69
2021/07/03 08:50:31;;;;;;;4.97;4.57;;;36.80;50.60;;;;;;5055541;28;20540;-68
2021/07/03 08:52:57;;;;;;;4.57;4.23;;;36.60;51.50;;;;;;5055686;28;20169;-69
2021/07/03 08:55:26;;;;;;;4.37;3.97;;;36.60;50.10;;;;;;5054302;28;20173;-68
2021/07/03 08:57:54;;;;;;;4.07;3.77;;;36.30;50.00;;;;;;5051900;28;20194;-68
2021/07/03 09:00:43;;;;;;;4.63;4.30;;;36.10;50.20;;;;;;5035582;28;20463;-68
2021/07/03 09:03:13;;;;;;;4.73;4.30;;;35.90;50.40;;;;;;5035414;28;20400;-69
2021/07/03 09:05:41;;;;;;;3.83;3.57;;;36.20;50.50;;;;;;5035730;28;20425;-68
2021/07/03 09:08:09;;;;;;;4.37;4.07;;;36.60;48.80;;;;;;5035104;28;20929;-70
2021/07/03 09:10:37;;;;;;;4.60;4.20;;;36.80;50.40;;;;;;5035536;28;20787;-69
2021/07/03 09:13:05;;;;;;;4.50;4.20;;;36.60;50.40;;;;;;5035649;28;20401;-71
2021/07/03 09:15:34;;;;;;;4.40;4.10;;;36.80;49.40;;;;;;5035429;28;20444;-69
2021/07/03 09:18:07;;;;;;;4.37;4.00;;;37.10;48.40;;;;;;5033689;28;20412;-69
2021/07/03 09:20:42;;;;;;;5.00;4.60;;;37.40;46.50;;;;;;5035452;28;20468;-70
2021/07/03 09:23:14;;;;;;;4.97;4.57;;;37.40;46.80;;;;;;5053846;28;20431;-70
2021/07/03 09:25:46;;;;;;;4.40;4.10;;;37.70;46.80;;;;;;5055366;28;20964;-70
2021/07/03 09:28:23;;;;;;;4.73;4.33;;;37.80;45.60;;;;;;5054912;28;20408;-70
2021/07/03 09:30:53;;;;;;;4.23;3.93;;;37.80;46.10;;;;;;5055138;28;20436;-70
2021/07/03 09:33:28;;;;;;;4.97;4.60;;;37.90;46.70;;;;;;5055156;28;20412;-69
2021/07/03 09:36:05;;;;;;;4.40;4.10;;;38.20;46.80;;;;;;5054513;28;20415;-69
2021/07/03 09:38:47;;;;;;;3.87;3.67;;;38.40;47.30;;;;;;5054557;28;20408;-68
2021/07/03 09:41:15;;;;;;;4.37;4.07;;;38.30;45.00;;;;;;5054947;28;20451;-69
2021/07/03 09:44:09;;;;;;;4.97;4.57;;;38.10;45.60;;;;;;5048814;28;20432;-69
2021/07/03 09:46:50;;;;;;;4.40;4.10;;;37.90;45.90;;;;;;5033306;28;20409;-69
2021/07/03 09:49:22;;;;;;;6.53;4.30;;;37.70;46.10;;;;;;5034059;28;20954;-68
2021/07/03 09:51:54;;;;;;;5.40;5.00;;;37.80;45.90;;;;;;5034658;28;20405;-69
2021/07/03 09:54:24;;;;;;;4.30;4.00;;;38.10;46.60;;;;;;5033269;28;20773;-69
2021/07/03 09:56:58;;;;;;;4.73;4.40;;;38.20;47.00;;;;;;5034269;28;20420;-69
2021/07/03 09:59:29;;;;;;;4.60;4.30;;;38.60;46.30;;;;;;5046730;28;20465;-68
2021/07/03 10:01:54;;;;;;;4.27;4.07;;;39.10;45.80;;;;;;5053937;28;20404;-69
2021/07/03 10:04:20;;;;;;;4.90;4.57;;;39.30;45.70;;;;;;5043144;28;20516;-68
2021/07/03 10:07:09;;;;;;;4.17;3.90;;;39.30;44.40;;;;;;5034009;28;20202;-68
2021/07/03 10:09:42;;;;;;;4.30;3.93;;;39.10;44.00;;;;;;5033372;28;20202;-67
2021/07/03 10:12:15;;;;;;;4.70;4.40;;;39.10;44.40;;;;;;5034135;28;20488;-68
2021/07/03 10:14:43;;;;;;;5.13;4.73;;;38.90;44.90;;;;;;5033887;28;20413;-69
2021/07/03 10:17:09;;;;;;;5.00;4.60;;;38.90;44.40;;;;;;5033663;28;20407;-69
2021/07/03 10:19:40;;;;;;;5.07;4.70;;;39.00;44.00;;;;;;5048236;28;20768;-68
2021/07/03 10:22:20;;;;;;;5.00;4.50;;;38.60;43.10;;;;;;5054038;28;20510;-68
2021/07/03 10:24:50;;;;;;;4.17;3.87;;;38.00;44.10;;;;;;5053842;28;20476;-69
2021/07/03 10:27:23;;;;;;;4.40;4.00;;;37.80;45.30;;;;;;5053453;28;20499;-67
2021/07/03 10:29:49;;;;;;;5.67;5.27;;;37.20;46.00;;;;;;5053715;28;20434;-69
2021/07/03 10:32:20;;;;;;;4.87;4.53;;;36.60;48.00;;;;;;5053566;28;20420;-69
2021/07/03 10:34:46;;;;;;;3.90;3.70;;;36.40;47.40;;;;;;5034945;28;20431;-68
2021/07/03 10:37:15;;;;;;;4.47;4.17;;;35.90;47.60;;;;;;5033296;28;20412;-68
2021/07/03 10:39:41;;;;;;;5.10;4.70;;;35.40;46.50;;;;;;5033367;28;20194;-69
2021/07/03 10:42:06;;;;;;;4.83;4.53;;;35.00;48.30;;;;;;5033321;28;20424;-68
2021/07/03 10:44:40;;;;;;;4.10;3.80;;;35.10;48.80;;;;;;5033667;28;20260;-67
2021/07/03 10:47:11;;;;;;;4.63;4.23;;;35.30;48.50;;;;;;5033350;28;20178;-68
2021/07/03 10:49:38;;;;;;;4.77;4.47;;;35.60;50.10;;;;;;5052244;28;20454;-68
2021/07/03 10:52:15;;;;;;;4.47;4.17;;;35.90;48.10;;;;;;5053177;28;20462;-69
2021/07/03 10:54:42;;;;;;;6.67;4.20;;;36.00;46.30;;;;;;5053874;28;20526;-69
2021/07/03 10:57:09;;;;;;;4.33;4.03;;;36.20;46.60;;;;;;5039878;28;20497;-69
2021/07/03 10:59:40;;;;;;;5.27;4.77;;;36.50;45.90;;;;;;5040892;28;20435;-69
2021/07/03 11:02:14;;;;;;;3.77;3.47;;;36.60;44.30;;;;;;5053507;28;20396;-68
2021/07/03 11:04:47;;;;;;;3.83;3.57;;;36.20;43.00;;;;;;5053212;28;20396;-69
2021/07/03 11:07:33;;;;;;;4.73;4.43;;;36.20;42.70;;;;;;5051405;28;20404;-69
2021/07/03 11:10:12;;;;;;;4.40;4.10;;;35.50;45.00;;;;;;5032875;28;20530;-69
2021/07/03 11:12:54;;;;;;;4.10;3.80;;;35.00;45.90;;;;;;5033144;28;20431;-69
2021/07/03 11:15:26;;;;;;;4.43;4.13;;;34.60;48.10;;;;;;5031903;28;20389;-69
2021/07/03 11:17:55;;;;;;;4.80;4.40;;;34.40;47.40;;;;;;5032579;28;20432;-67
2021/07/03 11:20:29;;;;;;;4.17;3.77;;;33.70;47.70;;;;;;5032575;28;20892;-67
2021/07/03 11:22:56;;;;;;;4.17;3.77;;;32.60;48.50;;;;;;5033714;28;20437;-68
2021/07/03 11:25:28;;;;;;;4.60;4.20;;;31.70;48.60;;;;;;5033069;28;20398;-67
2021/07/03 11:28:03;;;;;;;4.97;3.60;;;30.90;51.30;;;;;;5032845;28;20467;-68
2021/07/03 11:30:29;;;;;;;4.93;3.33;;;30.30;51.20;;;;;;5033475;28;20785;-67
2021/07/03 11:32:58;;;;;;;3.33;3.03;;;29.40;52.90;;;;;;5031954;28;20463;-68
2021/07/03 11:35:26;;;;;;;3.80;3.50;;;28.90;53.20;;;;;;5033010;28;20545;-69
2021/07/03 11:37:52;;;;;;;3.93;3.63;;;28.60;53.20;;;;;;5032607;28;20416;-68
2021/07/03 11:40:25;;;;;;;3.73;3.10;;;28.30;54.70;;;;;;5032823;28;20556;-69
2021/07/03 11:42:57;;;;;;;3.27;3.07;;;28.20;54.70;;;;;;5033165;28;20793;-69
2021/07/03 11:45:28;;;;;;;2.90;2.70;;;28.00;54.70;;;;;;5033151;28;20815;-68
2021/07/03 11:48:03;;;;;;;3.23;3.03;;;27.90;54.50;;;;;;5032642;28;20995;-67
2021/07/03 11:50:44;;;;;;;3.23;2.97;;;27.80;55.10;;;;;;5033101;28;20515;-68
2021/07/03 11:53:12;;;;;;;3.53;3.23;;;27.80;56.30;;;;;;5033101;28;20434;-69
2021/07/03 11:55:45;;;;;;;3.70;3.33;;;27.80;52.50;;;;;;5032972;28;20454;-69
2021/07/03 11:58:17;;;;;;;3.80;3.50;;;27.60;53.60;;;;;;5032219;28;20440;-69
2021/07/03 12:00:54;;;;;;;3.10;2.90;;;27.50;51.20;;;;;;5048463;28;20514;-68
2021/07/03 12:03:32;;;;;;;4.63;2.97;;;27.50;52.80;;;;;;5052662;28;20457;-69
2021/07/03 12:05:59;;;;;;;2.37;2.17;;;27.30;51.90;;;;;;5052581;28;20937;-68
2021/07/03 12:08:39;;;;;;;3.87;3.57;;;27.10;52.20;;;;;;5051998;28;20400;-67
2021/07/03 12:11:10;;;;;;;2.77;2.57;;;27.00;53.20;;;;;;5052820;28;20410;-68
2021/07/03 12:13:44;;;;;;;2.40;2.30;;;27.20;51.80;;;;;;5052139;28;20420;-69
2021/07/03 12:16:11;;;;;;;2.60;2.40;;;27.10;51.50;;;;;;5052659;28;20443;-68
2021/07/03 12:18:41;;;;;;;8.30;2.93;;;27.10;53.80;;;;;;5052110;28;20404;-69
2021/07/03 12:21:11;;;;;;;3.50;3.00;;;27.10;54.90;;;;;;5052508;28;20501;-68
2021/07/03 12:23:47;;;;;;;6.80;4.70;;;27.20;54.10;;;;;;5052280;28;20392;-68
2021/07/03 12:26:14;;;;;;;2.90;2.67;;;27.20;53.80;;;;;;5052588;28;20446;-68
2021/07/03 12:28:54;;;;;;;4.33;3.17;;;27.20;53.50;;;;;;5048863;28;20447;-68
2021/07/03 12:31:27;;;;;;;2.97;2.70;;;27.10;53.40;;;;;;5035512;28;20451;-68
2021/07/03 12:34:27;;;;;;;3.30;2.90;;;27.00;53.00;;;;;;5036321;28;20421;-68
2021/07/03 12:37:12;;;;;;;3.10;2.80;;;26.90;54.00;;;;;;5036230;28;20475;-68
2021/07/03 12:39:39;;;;;;;2.53;2.33;;;26.90;54.10;;;;;;5035613;28;20788;-67
2021/07/03 12:42:10;;;;;;;6.40;3.00;;;26.90;53.90;;;;;;5036065;28;20380;-68
2021/07/03 12:44:47;;;;;;;5.60;3.10;;;26.90;55.60;;;;;;5035649;28;20399;-68
2021/07/03 12:47:18;;;;;;;3.00;2.70;;;26.90;56.00;;;;;;5034818;28;20486;-68
2021/07/03 12:49:50;;;;;;;3.40;3.10;;;27.00;52.50;;;;;;5035445;28;20432;-68